sensor_id;sensor_type;location;lat;lon;timestamp;P1;durP1;ratioP1;P2;durP2;ratioP2
47545;SDS011;50104;52.002;4.688;2023-07-28T00:03:16;12.35;;;6.55;;
47545;SDS011;50104;52.002;4.688;2023-07-28T00:08:17;11.02;;;7.80;;
47545;SDS011;50104;52.002;4.688;2023-07-28T00:13:18;10.98;;;8.25;;
47545;SDS011;50104;52.002;4.688;2023-07-28T00:18:18;15.90;;;7.82;;
47545;SDS011;50104;52.002;4.688;2023-07-28T00:23:21;10.80;;;7.40;;
47545;SDS011;50104;52.002;4.688;2023-07-28T00:28:22;15.73;;;8.40;;
47545;SDS011;50104;52.002;4.688;2023-07-28T00:33:22;15.02;;;8.25;;
47545;SDS011;50104;52.002;4.688;2023-07-28T00:38:23;14.98;;;8.90;;
47545;SDS011;50104;52.002;4.688;2023-07-28T00:43:24;13.27;;;9.30;;
47545;SDS011;50104;52.002;4.688;2023-07-28T00:48:25;17.77;;;9.27;;
47545;SDS011;50104;52.002;4.688;2023-07-28T00:53:26;14.20;;;9.07;;
47545;SDS011;50104;52.002;4.688;2023-07-28T00:58:29;14.55;;;9.73;;
47545;SDS011;50104;52.002;4.688;2023-07-28T01:03:30;16.65;;;9.57;;
47545;SDS011;50104;52.002;4.688;2023-07-28T01:13:43;16.15;;;8.75;;
47545;SDS011;50104;52.002;4.688;2023-07-28T01:18:45;13.70;;;10.23;;
47545;SDS011;50104;52.002;4.688;2023-07-28T01:29:02;16.77;;;9.68;;
47545;SDS011;50104;52.002;4.688;2023-07-28T01:34:04;15.75;;;9.27;;
47545;SDS011;50104;52.002;4.688;2023-07-28T01:39:05;19.73;;;9.57;;
47545;SDS011;50104;52.002;4.688;2023-07-28T01:44:06;13.77;;;8.27;;
47545;SDS011;50104;52.002;4.688;2023-07-28T01:49:06;16.30;;;8.43;;
47545;SDS011;50104;52.002;4.688;2023-07-28T01:54:07;17.25;;;8.75;;
47545;SDS011;50104;52.002;4.688;2023-07-28T01:59:08;14.13;;;8.68;;
47545;SDS011;50104;52.002;4.688;2023-07-28T02:04:08;22.23;;;10.00;;
47545;SDS011;50104;52.002;4.688;2023-07-28T02:09:09;17.38;;;9.60;;
47545;SDS011;50104;52.002;4.688;2023-07-28T02:14:10;14.10;;;7.75;;
47545;SDS011;50104;52.002;4.688;2023-07-28T02:19:11;12.57;;;7.93;;
47545;SDS011;50104;52.002;4.688;2023-07-28T02:24:12;16.25;;;8.07;;
47545;SDS011;50104;52.002;4.688;2023-07-28T02:29:12;13.10;;;7.35;;
47545;SDS011;50104;52.002;4.688;2023-07-28T02:34:13;20.10;;;8.13;;
47545;SDS011;50104;52.002;4.688;2023-07-28T02:39:14;13.55;;;7.95;;
47545;SDS011;50104;52.002;4.688;2023-07-28T02:44:15;17.20;;;9.38;;
47545;SDS011;50104;52.002;4.688;2023-07-28T02:49:15;16.75;;;10.32;;
47545;SDS011;50104;52.002;4.688;2023-07-28T02:54:16;20.92;;;9.38;;
47545;SDS011;50104;52.002;4.688;2023-07-28T02:59:17;19.15;;;10.27;;
47545;SDS011;50104;52.002;4.688;2023-07-28T03:04:18;21.77;;;11.73;;
47545;SDS011;50104;52.002;4.688;2023-07-28T03:09:20;21.35;;;10.30;;
47545;SDS011;50104;52.002;4.688;2023-07-28T03:14:21;14.10;;;9.10;;
47545;SDS011;50104;52.002;4.688;2023-07-28T03:19:21;18.55;;;10.13;;
47545;SDS011;50104;52.002;4.688;2023-07-28T03:24:22;20.20;;;9.23;;
47545;SDS011;50104;52.002;4.688;2023-07-28T03:29:23;21.30;;;9.95;;
47545;SDS011;50104;52.002;4.688;2023-07-28T03:34:23;17.75;;;9.38;;
47545;SDS011;50104;52.002;4.688;2023-07-28T03:39:24;21.52;;;9.45;;
47545;SDS011;50104;52.002;4.688;2023-07-28T03:44:25;17.25;;;8.85;;
47545;SDS011;50104;52.002;4.688;2023-07-28T03:49:26;19.48;;;9.60;;
47545;SDS011;50104;52.002;4.688;2023-07-28T03:54:27;17.77;;;9.90;;
47545;SDS011;50104;52.002;4.688;2023-07-28T03:59:27;18.15;;;10.75;;
47545;SDS011;50104;52.002;4.688;2023-07-28T04:04:28;19.23;;;10.27;;
47545;SDS011;50104;52.002;4.688;2023-07-28T04:09:29;18.20;;;10.05;;
47545;SDS011;50104;52.002;4.688;2023-07-28T04:14:29;23.63;;;10.57;;
47545;SDS011;50104;52.002;4.688;2023-07-28T04:19:30;22.33;;;11.82;;
47545;SDS011;50104;52.002;4.688;2023-07-28T04:24:31;22.27;;;11.43;;
47545;SDS011;50104;52.002;4.688;2023-07-28T04:29:32;17.45;;;11.43;;
47545;SDS011;50104;52.002;4.688;2023-07-28T04:34:33;23.42;;;11.32;;
47545;SDS011;50104;52.002;4.688;2023-07-28T04:39:34;18.23;;;10.52;;
47545;SDS011;50104;52.002;4.688;2023-07-28T04:44:37;16.70;;;9.70;;
47545;SDS011;50104;52.002;4.688;2023-07-28T04:49:41;19.23;;;10.13;;
47545;SDS011;50104;52.002;4.688;2023-07-28T04:54:41;23.83;;;10.38;;
47545;SDS011;50104;52.002;4.688;2023-07-28T04:59:42;27.60;;;10.73;;
47545;SDS011;50104;52.002;4.688;2023-07-28T05:04:43;17.83;;;10.48;;
47545;SDS011;50104;52.002;4.688;2023-07-28T05:09:44;21.75;;;9.40;;
47545;SDS011;50104;52.002;4.688;2023-07-28T05:14:45;20.63;;;10.18;;
47545;SDS011;50104;52.002;4.688;2023-07-28T05:19:45;20.55;;;9.50;;
47545;SDS011;50104;52.002;4.688;2023-07-28T05:24:46;22.08;;;9.85;;
47545;SDS011;50104;52.002;4.688;2023-07-28T05:29:47;16.13;;;10.25;;
47545;SDS011;50104;52.002;4.688;2023-07-28T05:34:48;18.98;;;10.35;;
47545;SDS011;50104;52.002;4.688;2023-07-28T05:39:48;23.10;;;11.13;;
47545;SDS011;50104;52.002;4.688;2023-07-28T05:44:49;22.27;;;10.68;;
47545;SDS011;50104;52.002;4.688;2023-07-28T05:49:53;17.67;;;9.70;;
47545;SDS011;50104;52.002;4.688;2023-07-28T05:54:53;19.98;;;9.63;;
47545;SDS011;50104;52.002;4.688;2023-07-28T05:59:54;17.48;;;9.00;;
47545;SDS011;50104;52.002;4.688;2023-07-28T06:04:55;22.05;;;10.38;;
47545;SDS011;50104;52.002;4.688;2023-07-28T06:09:56;18.55;;;9.68;;
47545;SDS011;50104;52.002;4.688;2023-07-28T06:14:56;17.75;;;10.15;;
47545;SDS011;50104;52.002;4.688;2023-07-28T06:19:57;18.50;;;10.15;;
47545;SDS011;50104;52.002;4.688;2023-07-28T06:24:58;11.75;;;8.93;;
47545;SDS011;50104;52.002;4.688;2023-07-28T06:29:59;13.02;;;9.68;;
47545;SDS011;50104;52.002;4.688;2023-07-28T06:35:00;12.00;;;8.63;;
47545;SDS011;50104;52.002;4.688;2023-07-28T06:40:01;12.73;;;8.75;;
47545;SDS011;50104;52.002;4.688;2023-07-28T06:45:02;10.25;;;7.90;;
47545;SDS011;50104;52.002;4.688;2023-07-28T06:50:04;13.30;;;7.10;;
47545;SDS011;50104;52.002;4.688;2023-07-28T06:55:06;8.55;;;7.47;;
47545;SDS011;50104;52.002;4.688;2023-07-28T07:00:07;12.10;;;7.35;;
47545;SDS011;50104;52.002;4.688;2023-07-28T07:05:12;9.55;;;6.80;;
47545;SDS011;50104;52.002;4.688;2023-07-28T07:10:13;12.27;;;7.82;;
47545;SDS011;50104;52.002;4.688;2023-07-28T07:15:13;11.90;;;7.20;;
47545;SDS011;50104;52.002;4.688;2023-07-28T07:20:15;10.70;;;6.75;;
47545;SDS011;50104;52.002;4.688;2023-07-28T07:25:16;9.75;;;7.20;;
47545;SDS011;50104;52.002;4.688;2023-07-28T07:30:17;10.40;;;7.15;;
47545;SDS011;50104;52.002;4.688;2023-07-28T07:35:17;7.70;;;6.63;;
47545;SDS011;50104;52.002;4.688;2023-07-28T07:40:18;9.68;;;7.25;;
47545;SDS011;50104;52.002;4.688;2023-07-28T07:45:19;8.38;;;6.28;;
47545;SDS011;50104;52.002;4.688;2023-07-28T07:50:20;13.38;;;7.07;;
47545;SDS011;50104;52.002;4.688;2023-07-28T07:55:21;9.27;;;7.63;;
47545;SDS011;50104;52.002;4.688;2023-07-28T08:00:22;10.00;;;6.82;;
47545;SDS011;50104;52.002;4.688;2023-07-28T08:05:23;10.77;;;7.30;;
47545;SDS011;50104;52.002;4.688;2023-07-28T08:10:24;7.28;;;6.55;;
47545;SDS011;50104;52.002;4.688;2023-07-28T08:15:25;11.18;;;5.75;;
47545;SDS011;50104;52.002;4.688;2023-07-28T08:20:26;10.00;;;6.03;;
47545;SDS011;50104;52.002;4.688;2023-07-28T08:25:27;9.10;;;5.53;;
47545;SDS011;50104;52.002;4.688;2023-07-28T08:30:28;10.85;;;5.32;;
47545;SDS011;50104;52.002;4.688;2023-07-28T08:35:28;12.05;;;5.40;;
47545;SDS011;50104;52.002;4.688;2023-07-28T08:40:29;10.85;;;5.68;;
47545;SDS011;50104;52.002;4.688;2023-07-28T08:45:30;10.25;;;5.40;;
47545;SDS011;50104;52.002;4.688;2023-07-28T08:50:31;7.65;;;5.32;;
47545;SDS011;50104;52.002;4.688;2023-07-28T08:55:32;8.88;;;5.88;;
47545;SDS011;50104;52.002;4.688;2023-07-28T09:00:32;10.00;;;6.32;;
47545;SDS011;50104;52.002;4.688;2023-07-28T09:05:33;9.68;;;5.55;;
47545;SDS011;50104;52.002;4.688;2023-07-28T09:10:41;13.35;;;6.28;;
47545;SDS011;50104;52.002;4.688;2023-07-28T09:15:48;12.65;;;6.13;;
47545;SDS011;50104;52.002;4.688;2023-07-28T09:20:49;8.32;;;6.45;;
47545;SDS011;50104;52.002;4.688;2023-07-28T09:25:50;8.18;;;5.82;;
47545;SDS011;50104;52.002;4.688;2023-07-28T09:31:01;5.68;;;4.93;;
47545;SDS011;50104;52.002;4.688;2023-07-28T09:36:09;8.38;;;5.00;;
47545;SDS011;50104;52.002;4.688;2023-07-28T09:41:16;6.45;;;5.13;;
47545;SDS011;50104;52.002;4.688;2023-07-28T09:46:18;8.32;;;4.80;;
47545;SDS011;50104;52.002;4.688;2023-07-28T09:51:20;7.22;;;5.15;;
47545;SDS011;50104;52.002;4.688;2023-07-28T09:56:23;7.07;;;4.47;;
47545;SDS011;50104;52.002;4.688;2023-07-28T10:01:32;8.98;;;7.07;;
47545;SDS011;50104;52.002;4.688;2023-07-28T10:06:33;9.45;;;6.63;;
47545;SDS011;50104;52.002;4.688;2023-07-28T10:11:34;9.43;;;7.60;;
47545;SDS011;50104;52.002;4.688;2023-07-28T10:16:39;11.65;;;7.05;;
47545;SDS011;50104;52.002;4.688;2023-07-28T10:21:40;12.13;;;7.07;;
47545;SDS011;50104;52.002;4.688;2023-07-28T10:26:42;7.53;;;5.53;;
47545;SDS011;50104;52.002;4.688;2023-07-28T10:31:55;7.43;;;5.03;;
47545;SDS011;50104;52.002;4.688;2023-07-28T10:36:57;8.05;;;5.25;;
47545;SDS011;50104;52.002;4.688;2023-07-28T10:47:09;8.10;;;3.67;;
47545;SDS011;50104;52.002;4.688;2023-07-28T10:52:11;7.18;;;3.65;;
47545;SDS011;50104;52.002;4.688;2023-07-28T10:57:12;7.40;;;4.20;;
47545;SDS011;50104;52.002;4.688;2023-07-28T11:02:16;4.28;;;3.05;;
47545;SDS011;50104;52.002;4.688;2023-07-28T11:07:16;8.75;;;3.72;;
47545;SDS011;50104;52.002;4.688;2023-07-28T11:12:17;5.50;;;3.85;;
47545;SDS011;50104;52.002;4.688;2023-07-28T11:17:18;6.88;;;3.38;;
47545;SDS011;50104;52.002;4.688;2023-07-28T11:22:19;5.43;;;3.72;;
47545;SDS011;50104;52.002;4.688;2023-07-28T11:27:20;4.50;;;3.15;;
47545;SDS011;50104;52.002;4.688;2023-07-28T11:32:20;8.85;;;4.18;;
47545;SDS011;50104;52.002;4.688;2023-07-28T11:37:21;6.75;;;2.90;;
47545;SDS011;50104;52.002;4.688;2023-07-28T11:42:22;4.22;;;2.83;;
47545;SDS011;50104;52.002;4.688;2023-07-28T11:47:23;4.03;;;3.03;;
47545;SDS011;50104;52.002;4.688;2023-07-28T11:52:24;4.88;;;3.05;;
47545;SDS011;50104;52.002;4.688;2023-07-28T11:57:32;4.32;;;3.80;;
47545;SDS011;50104;52.002;4.688;2023-07-28T12:02:34;5.43;;;3.50;;
47545;SDS011;50104;52.002;4.688;2023-07-28T12:07:35;7.13;;;4.00;;
47545;SDS011;50104;52.002;4.688;2023-07-28T12:12:41;8.38;;;4.05;;
47545;SDS011;50104;52.002;4.688;2023-07-28T12:18:04;6.47;;;3.72;;
47545;SDS011;50104;52.002;4.688;2023-07-28T12:23:09;5.78;;;3.67;;
47545;SDS011;50104;52.002;4.688;2023-07-28T12:28:10;6.32;;;4.78;;
47545;SDS011;50104;52.002;4.688;2023-07-28T12:33:12;7.13;;;4.47;;
47545;SDS011;50104;52.002;4.688;2023-07-28T12:38:12;7.07;;;5.05;;
47545;SDS011;50104;52.002;4.688;2023-07-28T12:43:13;10.55;;;5.70;;
47545;SDS011;50104;52.002;4.688;2023-07-28T12:48:15;7.75;;;5.22;;
47545;SDS011;50104;52.002;4.688;2023-07-28T12:53:16;9.13;;;5.05;;
47545;SDS011;50104;52.002;4.688;2023-07-28T12:58:17;6.07;;;5.47;;
47545;SDS011;50104;52.002;4.688;2023-07-28T13:03:17;8.30;;;6.18;;
47545;SDS011;50104;52.002;4.688;2023-07-28T13:08:18;10.82;;;7.75;;
47545;SDS011;50104;52.002;4.688;2023-07-28T13:13:19;11.38;;;8.05;;
47545;SDS011;50104;52.002;4.688;2023-07-28T13:18:20;10.38;;;8.70;;
47545;SDS011;50104;52.002;4.688;2023-07-28T13:23:20;10.30;;;8.20;;
47545;SDS011;50104;52.002;4.688;2023-07-28T13:28:21;9.40;;;8.07;;
47545;SDS011;50104;52.002;4.688;2023-07-28T13:33:22;11.70;;;8.48;;
47545;SDS011;50104;52.002;4.688;2023-07-28T13:38:23;9.85;;;8.15;;
47545;SDS011;50104;52.002;4.688;2023-07-28T13:43:23;9.13;;;6.47;;
47545;SDS011;50104;52.002;4.688;2023-07-28T13:48:24;11.07;;;9.23;;
47545;SDS011;50104;52.002;4.688;2023-07-28T13:53:25;13.48;;;9.38;;
47545;SDS011;50104;52.002;4.688;2023-07-28T13:58:28;11.32;;;10.10;;
47545;SDS011;50104;52.002;4.688;2023-07-28T14:03:28;11.02;;;9.10;;
47545;SDS011;50104;52.002;4.688;2023-07-28T14:08:29;11.65;;;9.30;;
47545;SDS011;50104;52.002;4.688;2023-07-28T14:13:30;10.30;;;8.57;;
47545;SDS011;50104;52.002;4.688;2023-07-28T14:18:32;6.43;;;5.57;;
47545;SDS011;50104;52.002;4.688;2023-07-28T14:23:33;9.02;;;6.20;;
47545;SDS011;50104;52.002;4.688;2023-07-28T14:28:34;9.20;;;6.80;;
47545;SDS011;50104;52.002;4.688;2023-07-28T14:33:35;8.45;;;6.60;;
47545;SDS011;50104;52.002;4.688;2023-07-28T14:38:35;7.32;;;6.28;;
47545;SDS011;50104;52.002;4.688;2023-07-28T14:43:36;6.40;;;5.78;;
47545;SDS011;50104;52.002;4.688;2023-07-28T14:48:37;8.90;;;5.28;;
47545;SDS011;50104;52.002;4.688;2023-07-28T14:53:39;6.50;;;5.72;;
47545;SDS011;50104;52.002;4.688;2023-07-28T14:58:45;9.85;;;7.03;;
47545;SDS011;50104;52.002;4.688;2023-07-28T15:03:46;7.38;;;6.43;;
47545;SDS011;50104;52.002;4.688;2023-07-28T15:08:47;6.25;;;5.65;;
47545;SDS011;50104;52.002;4.688;2023-07-28T15:13:48;4.93;;;4.03;;
47545;SDS011;50104;52.002;4.688;2023-07-28T15:18:48;3.45;;;2.65;;
47545;SDS011;50104;52.002;4.688;2023-07-28T15:23:53;2.75;;;2.15;;
47545;SDS011;50104;52.002;4.688;2023-07-28T15:28:55;3.50;;;3.20;;
47545;SDS011;50104;52.002;4.688;2023-07-28T15:33:57;5.30;;;4.10;;
47545;SDS011;50104;52.002;4.688;2023-07-28T15:38:58;3.83;;;3.50;;
47545;SDS011;50104;52.002;4.688;2023-07-28T15:43:59;5.38;;;3.38;;
47545;SDS011;50104;52.002;4.688;2023-07-28T15:49:00;4.07;;;3.78;;
47545;SDS011;50104;52.002;4.688;2023-07-28T15:54:01;5.15;;;4.63;;
47545;SDS011;50104;52.002;4.688;2023-07-28T15:59:02;4.47;;;4.07;;
47545;SDS011;50104;52.002;4.688;2023-07-28T16:04:03;7.72;;;5.05;;
47545;SDS011;50104;52.002;4.688;2023-07-28T16:09:04;5.82;;;5.13;;
47545;SDS011;50104;52.002;4.688;2023-07-28T16:14:04;4.88;;;4.47;;
47545;SDS011;50104;52.002;4.688;2023-07-28T16:19:05;5.63;;;5.10;;
47545;SDS011;50104;52.002;4.688;2023-07-28T16:24:06;7.15;;;6.45;;
47545;SDS011;50104;52.002;4.688;2023-07-28T16:29:07;6.82;;;5.55;;
47545;SDS011;50104;52.002;4.688;2023-07-28T16:34:09;5.90;;;5.30;;
47545;SDS011;50104;52.002;4.688;2023-07-28T16:39:10;4.93;;;4.53;;
47545;SDS011;50104;52.002;4.688;2023-07-28T16:44:10;5.15;;;4.00;;
47545;SDS011;50104;52.002;4.688;2023-07-28T16:49:11;4.47;;;4.07;;
47545;SDS011;50104;52.002;4.688;2023-07-28T16:54:12;8.60;;;4.68;;
47545;SDS011;50104;52.002;4.688;2023-07-28T16:59:13;4.93;;;3.58;;
47545;SDS011;50104;52.002;4.688;2023-07-28T17:04:13;4.15;;;3.30;;
47545;SDS011;50104;52.002;4.688;2023-07-28T17:09:14;6.18;;;3.40;;
47545;SDS011;50104;52.002;4.688;2023-07-28T17:14:15;5.55;;;3.25;;
47545;SDS011;50104;52.002;4.688;2023-07-28T17:19:16;3.28;;;2.97;;
47545;SDS011;50104;52.002;4.688;2023-07-28T17:24:16;3.38;;;3.05;;
47545;SDS011;50104;52.002;4.688;2023-07-28T17:29:17;4.05;;;3.00;;
47545;SDS011;50104;52.002;4.688;2023-07-28T17:34:18;3.03;;;2.72;;
47545;SDS011;50104;52.002;4.688;2023-07-28T17:39:19;4.18;;;3.15;;
47545;SDS011;50104;52.002;4.688;2023-07-28T17:44:19;2.67;;;2.47;;
47545;SDS011;50104;52.002;4.688;2023-07-28T17:49:20;4.20;;;2.38;;
47545;SDS011;50104;52.002;4.688;2023-07-28T17:54:21;5.47;;;2.42;;
47545;SDS011;50104;52.002;4.688;2023-07-28T17:59:22;3.72;;;2.35;;
47545;SDS011;50104;52.002;4.688;2023-07-28T18:04:23;3.42;;;2.55;;
47545;SDS011;50104;52.002;4.688;2023-07-28T18:09:24;2.33;;;1.88;;
47545;SDS011;50104;52.002;4.688;2023-07-28T18:14:24;3.47;;;2.30;;
47545;SDS011;50104;52.002;4.688;2023-07-28T18:19:25;3.08;;;2.33;;
47545;SDS011;50104;52.002;4.688;2023-07-28T18:24:26;2.15;;;1.95;;
47545;SDS011;50104;52.002;4.688;2023-07-28T18:29:27;2.40;;;2.20;;
47545;SDS011;50104;52.002;4.688;2023-07-28T18:34:27;3.00;;;2.70;;
47545;SDS011;50104;52.002;4.688;2023-07-28T18:39:28;2.33;;;2.08;;
47545;SDS011;50104;52.002;4.688;2023-07-28T18:44:30;3.47;;;2.65;;
47545;SDS011;50104;52.002;4.688;2023-07-28T18:49:31;3.97;;;2.53;;
47545;SDS011;50104;52.002;4.688;2023-07-28T18:54:33;2.95;;;2.75;;
47545;SDS011;50104;52.002;4.688;2023-07-28T18:59:34;4.22;;;1.77;;
47545;SDS011;50104;52.002;4.688;2023-07-28T19:04:34;5.20;;;1.70;;
47545;SDS011;50104;52.002;4.688;2023-07-28T19:09:35;2.97;;;1.40;;
47545;SDS011;50104;52.002;4.688;2023-07-28T19:14:37;1.55;;;1.23;;
47545;SDS011;50104;52.002;4.688;2023-07-28T19:19:38;2.10;;;1.27;;
47545;SDS011;50104;52.002;4.688;2023-07-28T19:24:40;3.42;;;1.23;;
47545;SDS011;50104;52.002;4.688;2023-07-28T19:29:41;3.17;;;1.20;;
47545;SDS011;50104;52.002;4.688;2023-07-28T19:34:42;3.00;;;1.30;;
47545;SDS011;50104;52.002;4.688;2023-07-28T19:39:42;1.73;;;1.20;;
47545;SDS011;50104;52.002;4.688;2023-07-28T19:44:43;2.35;;;1.10;;
47545;SDS011;50104;52.002;4.688;2023-07-28T19:49:44;2.10;;;1.02;;
47545;SDS011;50104;52.002;4.688;2023-07-28T19:54:44;2.45;;;1.70;;
47545;SDS011;50104;52.002;4.688;2023-07-28T19:59:45;1.17;;;0.70;;
47545;SDS011;50104;52.002;4.688;2023-07-28T20:04:46;0.52;;;0.43;;
47545;SDS011;50104;52.002;4.688;2023-07-28T20:09:47;2.08;;;0.70;;
47545;SDS011;50104;52.002;4.688;2023-07-28T20:14:47;3.75;;;0.80;;
47545;SDS011;50104;52.002;4.688;2023-07-28T20:19:48;1.63;;;0.75;;
47545;SDS011;50104;52.002;4.688;2023-07-28T20:24:49;2.42;;;0.60;;
47545;SDS011;50104;52.002;4.688;2023-07-28T20:29:51;1.50;;;0.70;;
47545;SDS011;50104;52.002;4.688;2023-07-28T20:34:51;1.75;;;0.80;;
47545;SDS011;50104;52.002;4.688;2023-07-28T20:39:52;3.50;;;0.63;;
47545;SDS011;50104;52.002;4.688;2023-07-28T20:44:53;1.15;;;0.70;;
47545;SDS011;50104;52.002;4.688;2023-07-28T20:49:54;1.00;;;0.70;;
47545;SDS011;50104;52.002;4.688;2023-07-28T20:54:54;1.70;;;0.80;;
47545;SDS011;50104;52.002;4.688;2023-07-28T20:59:55;1.05;;;0.65;;
47545;SDS011;50104;52.002;4.688;2023-07-28T21:04:56;2.58;;;0.68;;
47545;SDS011;50104;52.002;4.688;2023-07-28T21:09:58;2.40;;;0.73;;
47545;SDS011;50104;52.002;4.688;2023-07-28T21:14:59;2.33;;;1.13;;
47545;SDS011;50104;52.002;4.688;2023-07-28T21:20:00;1.58;;;0.85;;
47545;SDS011;50104;52.002;4.688;2023-07-28T21:25:00;4.90;;;1.35;;
47545;SDS011;50104;52.002;4.688;2023-07-28T21:30:01;2.05;;;0.85;;
47545;SDS011;50104;52.002;4.688;2023-07-28T21:35:02;5.07;;;1.60;;
47545;SDS011;50104;52.002;4.688;2023-07-28T21:40:04;2.53;;;0.80;;
47545;SDS011;50104;52.002;4.688;2023-07-28T21:45:06;2.33;;;1.38;;
47545;SDS011;50104;52.002;4.688;2023-07-28T21:50:07;1.15;;;0.90;;
47545;SDS011;50104;52.002;4.688;2023-07-28T21:55:09;3.80;;;0.95;;
47545;SDS011;50104;52.002;4.688;2023-07-28T22:00:13;2.15;;;0.80;;
47545;SDS011;50104;52.002;4.688;2023-07-28T22:05:14;1.48;;;0.80;;
47545;SDS011;50104;52.002;4.688;2023-07-28T22:10:25;3.05;;;1.10;;
47545;SDS011;50104;52.002;4.688;2023-07-28T22:15:34;6.05;;;1.38;;
47545;SDS011;50104;52.002;4.688;2023-07-28T22:20:47;3.42;;;1.23;;
47545;SDS011;50104;52.002;4.688;2023-07-28T22:25:58;3.65;;;1.58;;
47545;SDS011;50104;52.002;4.688;2023-07-28T22:31:01;10.23;;;5.72;;
47545;SDS011;50104;52.002;4.688;2023-07-28T22:36:13;7.45;;;4.55;;
47545;SDS011;50104;52.002;4.688;2023-07-28T22:41:26;4.50;;;3.08;;
47545;SDS011;50104;52.002;4.688;2023-07-28T22:46:27;4.43;;;3.03;;
47545;SDS011;50104;52.002;4.688;2023-07-28T22:51:28;3.30;;;1.70;;
47545;SDS011;50104;52.002;4.688;2023-07-28T22:56:29;5.57;;;2.05;;
47545;SDS011;50104;52.002;4.688;2023-07-28T23:01:29;4.00;;;2.45;;
47545;SDS011;50104;52.002;4.688;2023-07-28T23:06:30;3.95;;;2.70;;
47545;SDS011;50104;52.002;4.688;2023-07-28T23:11:31;6.00;;;2.40;;
47545;SDS011;50104;52.002;4.688;2023-07-28T23:16:32;4.72;;;1.95;;
47545;SDS011;50104;52.002;4.688;2023-07-28T23:21:33;2.50;;;1.70;;
47545;SDS011;50104;52.002;4.688;2023-07-28T23:26:34;2.20;;;1.52;;
47545;SDS011;50104;52.002;4.688;2023-07-28T23:31:34;2.92;;;2.03;;
47545;SDS011;50104;52.002;4.688;2023-07-28T23:36:36;2.17;;;1.52;;
47545;SDS011;50104;52.002;4.688;2023-07-28T23:41:37;6.55;;;2.17;;
47545;SDS011;50104;52.002;4.688;2023-07-28T23:46:37;3.15;;;1.73;;
47545;SDS011;50104;52.002;4.688;2023-07-28T23:51:38;3.38;;;2.22;;
47545;SDS011;50104;52.002;4.688;2023-07-28T23:56:39;3.50;;;1.95;;
